Time;durP1;ratioP1;P1;durP2;ratioP2;P2;SDS_P1;SDS_P2;PMS_P1;PMS_P2;Temp;Humidity;BMP_temperature;BMP_pressure;BME280_temperature;BME280_humidity;BME280_pressure;Samples;Min_cycle;Max_cycle;Signal;HPM_P1;HPM_P2
2023/10/15 00:00:47;;;;;;;1.93;0.50;;;;;;;4.38;100.00;100606.84;7388910;19;20439;-39
2023/10/15 00:03:16;;;;;;;5.17;2.40;;;;;;;4.33;100.00;100612.53;7364153;19;20482;-39
2023/10/15 00:05:46;;;;;;;1.50;0.60;;;;;;;4.34;100.00;100615.97;7387103;19;20403;-38
2023/10/15 00:08:16;;;;;;;3.13;0.60;;;;;;;4.32;100.00;100643.97;7363904;19;20819;-39
2023/10/15 00:10:46;;;;;;;8.27;1.57;;;;;;;4.31;100.00;100656.66;7387060;19;20415;-39
2023/10/15 00:13:15;;;;;;;3.63;1.17;;;;;;;4.33;100.00;100657.63;7363293;19;20451;-40
2023/10/15 00:15:48;;;;;;;5.53;1.17;;;;;;;4.39;100.00;100659.69;7387364;19;20423;-41
2023/10/15 00:18:17;;;;;;;5.87;0.97;;;;;;;4.39;100.00;100655.47;7364975;19;20499;-39
2023/10/15 00:20:47;;;;;;;1.97;0.50;;;;;;;4.37;100.00;100641.75;7385246;19;20403;-39
2023/10/15 00:23:17;;;;;;;11.30;1.60;;;;;;;4.34;100.00;100618.53;7361947;19;20458;-39
2023/10/15 00:25:49;;;;;;;6.00;1.13;;;;;;;4.32;100.00;100615.88;7386928;19;20471;-38
2023/10/15 00:28:19;;;;;;;3.40;0.80;;;;;;;4.37;100.00;100620.41;7364237;19;20494;-39
2023/10/15 00:30:51;;;;;;;8.60;1.73;;;;;;;4.39;100.00;100619.72;7386781;19;21510;-39
2023/10/15 00:33:21;;;;;;;10.93;1.13;;;;;;;4.46;100.00;100600.53;7363464;19;20454;-40
2023/10/15 00:35:55;;;;;;;1.90;0.73;;;;;;;4.46;100.00;100574.97;7388025;19;20407;-38
2023/10/15 00:38:25;;;;;;;4.03;1.10;;;;;;;4.52;100.00;100615.41;7364401;19;20426;-39
2023/10/15 00:41:00;;;;;;;5.97;1.00;;;;;;;4.53;100.00;100596.72;7386397;19;20491;-38
2023/10/15 00:43:30;;;;;;;8.37;0.97;;;;;;;4.51;100.00;100577.84;7363353;19;20524;-38
2023/10/15 00:46:04;;;;;;;7.00;1.10;;;;;;;4.52;100.00;100561.72;7386027;19;20415;-39
2023/10/15 00:48:36;;;;;;;4.93;1.17;;;;;;;4.49;100.00;100546.19;7362057;19;20419;-38
2023/10/15 00:51:10;;;;;;;3.60;0.70;;;;;;;4.49;100.00;100556.41;7386283;19;20407;-38
2023/10/15 00:53:48;;;;;;;4.20;0.97;;;;;;;4.44;100.00;100545.91;7362536;19;20548;-38
2023/10/15 00:56:19;;;;;;;2.93;0.90;;;;;;;4.43;100.00;100547.59;7386045;19;20375;-40
2023/10/15 00:59:08;;;;;;;3.23;0.97;;;;;;;4.41;100.00;100538.94;7363899;19;20433;-38
2023/10/15 01:01:48;;;;;;;4.60;0.90;;;;;;;4.44;100.00;100561.25;7363891;19;20821;-41
2023/10/15 01:04:24;;;;;;;4.03;1.40;;;;;;;4.45;100.00;100569.00;7384560;19;20431;-38
2023/10/15 01:07:00;;;;;;;5.53;2.20;;;;;;;4.43;100.00;100580.81;7363244;19;22514;-37
2023/10/15 01:09:30;;;;;;;9.97;4.13;;;;;;;4.42;100.00;100589.25;7379949;19;20423;-39
2023/10/15 01:12:18;;;;;;;3.23;1.20;;;;;;;4.43;100.00;100591.03;7362698;19;20419;-39
2023/10/15 01:14:48;;;;;;;5.10;1.40;;;;;;;4.49;100.00;100593.09;7379425;19;21591;-38
2023/10/15 01:17:23;;;;;;;4.07;1.07;;;;;;;4.49;100.00;100589.63;7364055;19;20502;-39
2023/10/15 01:19:54;;;;;;;5.50;1.67;;;;;;;4.50;100.00;100750.72;7391904;19;20437;-39
2023/10/15 01:22:24;;;;;;;4.53;0.80;;;;;;;4.53;100.00;100658.03;7368492;19;20427;-40
2023/10/15 01:24:56;;;;;;;4.07;1.00;;;;;;;4.55;100.00;100554.25;7390726;19;20407;-39
2023/10/15 01:27:30;;;;;;;3.97;0.90;;;;;;;4.57;100.00;100405.34;7371093;19;20426;-41
2023/10/15 01:30:01;;;;;;;4.33;1.00;;;;;;;4.57;100.00;101012.69;7393042;19;20423;-39
2023/10/15 01:32:31;;;;;;;3.40;0.77;;;;;;;4.53;100.00;100842.94;7368534;19;20964;-39
2023/10/15 01:35:07;;;;;;;4.33;1.33;;;;;;;4.58;100.00;100848.34;7394303;19;20403;-39
2023/10/15 01:37:45;;;;;;;4.83;0.90;;;;;;;4.55;100.00;100858.34;7368721;19;20488;-40
2023/10/15 01:40:40;;;;;;;8.57;3.10;;;;;;;4.56;100.00;100883.16;7393014;19;20395;-41
2023/10/15 01:43:12;;;;;;;3.83;1.33;;;;;;;4.65;100.00;100893.06;7368367;19;20892;-41
2023/10/15 01:45:47;;;;;;;25.83;7.07;;;;;;;4.64;100.00;100915.22;7393605;19;20401;-44
2023/10/15 01:48:24;;;;;;;7.00;1.00;;;;;;;4.57;100.00;100923.25;7367761;19;20799;-39
2023/10/15 01:51:04;;;;;;;4.30;0.90;;;;;;;4.56;100.00;100931.69;7390893;19;20431;-40
2023/10/15 01:53:34;;;;;;;2.97;0.80;;;;;;;4.56;100.00;100945.34;7367362;19;20857;-39
2023/10/15 01:56:07;;;;;;;4.97;1.50;;;;;;;4.59;100.00;100953.25;7393418;19;20432;-40
2023/10/15 01:58:39;;;;;;;5.30;2.00;;;;;;;4.58;100.00;100989.78;7368625;19;20977;-39
2023/10/15 02:01:20;;;;;;;4.10;0.90;;;;;;;4.50;100.00;101028.38;7392916;19;20427;-40
2023/10/15 02:03:50;;;;;;;14.13;3.80;;;;;;;4.46;100.00;101038.38;7374860;19;20479;-40
2023/10/15 02:06:20;;;;;;;9.63;1.00;;;;;;;4.48;100.00;101024.81;7401567;19;20419;-42
2023/10/15 02:08:51;;;;;;;8.03;3.00;;;;;;;4.50;100.00;101029.25;7375920;19;20467;-39
2023/10/15 02:11:26;;;;;;;3.30;1.13;;;;;;;4.47;100.00;101026.50;7398049;19;20435;-39
2023/10/15 02:13:56;;;;;;;8.13;1.60;;;;;;;4.49;100.00;101018.91;7374935;19;20446;-39
2023/10/15 02:16:32;;;;;;;4.23;1.40;;;;;;;4.52;100.00;101037.03;7401569;19;20406;-41
2023/10/15 02:19:06;;;;;;;4.47;1.27;;;;;;;4.58;100.00;101019.56;7377694;19;21040;-40
2023/10/15 02:21:47;;;;;;;8.70;1.10;;;;;;;4.51;100.00;101022.50;7377871;19;20483;-43
2023/10/15 02:24:18;;;;;;;5.80;1.00;;;;;;;4.47;100.00;101044.38;7396568;19;20431;-39
2023/10/15 02:26:51;;;;;;;3.43;1.00;;;;;;;4.46;100.00;101051.16;7375134;19;20384;-40
2023/10/15 02:29:34;;;;;;;3.90;0.87;;;;;;;4.49;100.00;101044.47;7396652;19;20402;-40
2023/10/15 02:32:20;;;;;;;5.90;1.43;;;;;;;4.39;100.00;101028.50;7374003;19;20426;-38
2023/10/15 02:34:52;;;;;;;2.20;1.03;;;;;;;4.35;100.00;101021.38;7396336;19;20412;-39
2023/10/15 02:37:25;;;;;;;5.37;1.87;;;;;;;4.33;100.00;101025.50;7375522;19;20418;-41
2023/10/15 02:39:56;;;;;;;7.97;2.27;;;;;;;4.32;100.00;101028.84;7398318;19;20413;-40
2023/10/15 02:42:34;;;;;;;4.23;0.93;;;;;;;4.28;100.00;101037.06;7375545;19;20904;-39
2023/10/15 02:45:06;;;;;;;5.83;1.23;;;;;;;4.30;100.00;101058.47;7396815;19;20432;-40
2023/10/15 02:47:48;;;;;;;7.80;1.27;;;;;;;4.29;100.00;101078.06;7374690;19;20430;-41
2023/10/15 02:50:23;;;;;;;3.17;1.17;;;;;;;4.33;100.00;101097.03;7395608;19;21188;-39
2023/10/15 02:52:54;;;;;;;3.70;1.03;;;;;;;4.36;100.00;101087.03;7372452;19;21076;-43
2023/10/15 02:55:35;;;;;;;2.90;0.90;;;;;;;4.32;100.00;101085.06;7396978;19;20425;-40
2023/10/15 02:58:13;;;;;;;13.80;4.90;;;;;;;4.35;100.00;101090.38;7374315;19;20466;-39
2023/10/15 03:00:51;;;;;;;2.27;0.70;;;;;;;4.30;100.00;101095.16;7392915;19;20403;-41
2023/10/15 03:03:23;;;;;;;3.97;0.83;;;;;;;4.35;100.00;101087.81;7373261;19;20907;-41
2023/10/15 03:05:57;;;;;;;19.73;7.07;;;;;;;4.32;100.00;101085.06;7395976;19;20411;-41
2023/10/15 03:08:31;;;;;;;12.80;4.33;;;;;;;4.27;100.00;101078.72;7373879;19;20438;-39
2023/10/15 03:11:11;;;;;;;4.87;1.27;;;;;;;4.26;100.00;101077.81;7396113;19;20406;-39
2023/10/15 03:13:53;;;;;;;6.13;1.67;;;;;;;4.29;100.00;101101.03;7372079;19;20539;-38
2023/10/15 03:16:26;;;;;;;2.10;0.97;;;;;;;4.31;100.00;101101.16;7398620;19;20399;-41
2023/10/15 03:18:56;;;;;;;5.73;1.60;;;;;;;4.27;100.00;101101.72;7374871;19;20432;-39
2023/10/15 03:21:30;;;;;;;4.07;1.50;;;;;;;4.28;100.00;101101.81;7398247;19;20399;-41
2023/10/15 03:24:04;;;;;;;3.30;0.80;;;;;;;4.28;100.00;101111.16;7373428;19;20475;-39
2023/10/15 03:26:34;;;;;;;2.73;0.90;;;;;;;4.33;100.00;101125.16;7376596;19;20477;-39
2023/10/15 03:29:13;;;;;;;4.53;0.60;;;;;;;4.35;100.00;101141.47;7396987;19;20391;-39
2023/10/15 03:31:46;;;;;;;7.43;1.03;;;;;;;4.35;100.00;101166.16;7370233;19;20399;-40
2023/10/15 03:34:21;;;;;;;9.20;2.50;;;;;;;4.35;100.00;101164.47;7391592;19;20407;-38
2023/10/15 03:36:57;;;;;;;15.83;5.47;;;;;;;4.37;100.00;101179.91;7370072;19;20383;-40
2023/10/15 03:39:53;;;;;;;19.13;6.13;;;;;;;4.31;100.00;101165.91;7393726;19;20403;-43
2023/10/15 03:42:26;;;;;;;3.03;0.93;;;;;;;4.25;100.00;101159.47;7367966;19;20826;-38
2023/10/15 03:45:08;;;;;;;4.70;0.77;;;;;;;4.23;100.00;101151.69;7392820;19;20421;-38
2023/10/15 03:47:39;;;;;;;5.23;1.63;;;;;;;4.16;100.00;101132.44;7370179;19;20435;-39
2023/10/15 03:50:10;;;;;;;4.10;0.80;;;;;;;4.19;100.00;101119.00;7391378;19;20384;-39
2023/10/15 03:52:40;;;;;;;2.07;0.60;;;;;;;4.15;100.00;101094.06;7369761;19;20814;-39
2023/10/15 03:55:10;;;;;;;3.30;1.10;;;;;;;4.13;100.00;101091.38;7393658;19;20394;-40
2023/10/15 03:57:39;;;;;;;3.23;1.10;;;;;;;4.15;100.00;101101.72;7369889;19;20395;-40
2023/10/15 04:00:26;;;;;;;7.53;0.97;;;;;;;4.14;100.00;101107.56;7391677;19;20398;-40
2023/10/15 04:03:06;;;;;;;5.57;1.43;;;;;;;4.12;100.00;101119.34;7369665;19;20473;-40
2023/10/15 04:05:36;;;;;;;12.30;1.43;;;;;;;4.16;100.00;101121.38;7391355;19;20384;-41
2023/10/15 04:08:17;;;;;;;8.00;1.57;;;;;;;4.17;100.00;101112.91;7371263;19;20478;-39
2023/10/15 04:10:47;;;;;;;5.47;1.67;;;;;;;4.15;100.00;101100.03;7392509;19;20749;-39
2023/10/15 04:13:17;;;;;;;4.83;0.90;;;;;;;4.14;100.00;101103.38;7369563;19;20471;-41
2023/10/15 04:15:50;;;;;;;5.67;1.50;;;;;;;4.16;100.00;101101.78;7391223;19;20388;-38
2023/10/15 04:18:19;;;;;;;5.10;1.77;;;;;;;4.12;100.00;101104.94;7369758;19;20414;-40
2023/10/15 04:20:49;;;;;;;7.07;1.70;;;;;;;4.12;100.00;101094.72;7390385;19;20395;-38
2023/10/15 04:23:30;;;;;;;7.90;1.13;;;;;;;4.07;100.00;101070.50;7369113;19;21012;-40
2023/10/15 04:26:07;;;;;;;1.97;0.80;;;;;;;4.04;100.00;101075.34;7392185;19;20504;-41
2023/10/15 04:28:36;;;;;;;3.90;1.20;;;;;;;4.01;100.00;101077.72;7369159;19;20478;-40
2023/10/15 04:31:16;;;;;;;3.80;0.70;;;;;;;3.97;100.00;101071.50;7391928;19;20424;-39
2023/10/15 04:33:50;;;;;;;5.50;1.53;;;;;;;3.99;100.00;101092.03;7367822;19;20438;-39
2023/10/15 04:36:20;;;;;;;2.30;1.00;;;;;;;3.95;100.00;101090.88;7391207;19;20391;-39
2023/10/15 04:39:08;;;;;;;5.67;0.97;;;;;;;3.97;100.00;101089.34;7368200;19;20403;-38
2023/10/15 04:41:38;;;;;;;5.27;1.87;;;;;;;3.94;100.00;101083.13;7368370;19;20471;-43
2023/10/15 04:44:11;;;;;;;4.20;1.40;;;;;;;3.91;100.00;101094.88;7389873;19;20523;-41
2023/10/15 04:46:46;;;;;;;1.70;0.80;;;;;;;3.89;100.00;101068.34;7370788;19;20392;-39
2023/10/15 04:49:17;;;;;;;6.63;1.63;;;;;;;3.95;100.00;101064.47;7394711;19;20938;-41
2023/10/15 04:51:47;;;;;;;10.03;1.30;;;;;;;3.94;100.00;101075.47;7369401;19;20388;-40
2023/10/15 04:54:17;;;;;;;6.93;0.80;;;;;;;3.94;100.00;101083.13;7386582;19;20427;-42
2023/10/15 04:56:47;;;;;;;3.90;0.80;;;;;;;3.91;100.00;101105.09;7367811;19;20392;-39
2023/10/15 04:59:17;;;;;;;3.83;1.10;;;;;;;3.98;100.00;101125.97;7389436;19;20387;-40
2023/10/15 05:01:49;;;;;;;3.30;0.60;;;;;;;3.99;100.00;101138.88;7369326;19;20380;-41
2023/10/15 05:04:19;;;;;;;13.23;5.50;;;;;;;4.01;100.00;101127.09;7388748;19;20423;-38
2023/10/15 05:06:48;;;;;;;9.60;3.10;;;;;;;4.00;100.00;101120.22;7368217;19;20410;-40
2023/10/15 05:09:21;;;;;;;25.43;9.90;;;;;;;4.06;100.00;101104.47;7390273;19;20395;-40
2023/10/15 05:11:53;;;;;;;6.27;1.63;;;;;;;4.11;100.00;101115.03;7367269;19;20423;-40
2023/10/15 05:14:22;;;;;;;3.70;1.00;;;;;;;4.06;100.00;101112.13;7392450;19;20519;-42
2023/10/15 05:16:55;;;;;;;52.63;20.57;;;;;;;4.10;100.00;101129.44;7372012;19;20814;-39
2023/10/15 05:19:24;;;;;;;5.90;2.30;;;;;;;4.13;100.00;101122.03;7390034;19;20411;-40
2023/10/15 05:21:54;;;;;;;11.07;4.17;;;;;;;4.23;100.00;101125.25;7366497;19;20406;-39
2023/10/15 05:24:23;;;;;;;3.47;1.00;;;;;;;4.22;100.00;101126.03;7388486;19;20434;-39
2023/10/15 05:26:53;;;;;;;4.53;2.10;;;;;;;4.09;100.00;101111.47;7367077;19;20399;-38
2023/10/15 05:29:23;;;;;;;3.40;1.03;;;;;;;4.00;100.00;101112.56;7389932;19;20382;-40
2023/10/15 05:31:57;;;;;;;2.13;0.80;;;;;;;3.97;100.00;101114.00;7367969;19;20479;-39
2023/10/15 05:34:26;;;;;;;3.50;0.90;;;;;;;3.98;100.00;101120.88;7388570;19;20415;-38
2023/10/15 05:36:56;;;;;;;3.50;0.97;;;;;;;3.99;100.00;101128.66;7369010;19;20461;-40
2023/10/15 05:39:27;;;;;;;7.10;1.70;;;;;;;4.01;100.00;101118.56;7388512;19;20383;-39
2023/10/15 05:41:56;;;;;;;4.27;1.60;;;;;;;4.09;100.00;101125.13;7366033;19;20959;-43
2023/10/15 05:44:26;;;;;;;10.03;1.27;;;;;;;4.01;100.00;101126.22;7388382;19;20486;-39
2023/10/15 05:46:58;;;;;;;5.23;0.73;;;;;;;4.06;100.00;101114.69;7366227;19;20394;-40
2023/10/15 05:49:28;;;;;;;12.70;2.70;;;;;;;4.08;100.00;101113.13;7387441;19;20395;-38
2023/10/15 05:51:57;;;;;;;3.47;1.20;;;;;;;4.13;100.00;101114.34;7366488;19;20420;-42
2023/10/15 05:54:27;;;;;;;9.13;0.77;;;;;;;4.19;100.00;101117.38;7387741;19;20423;-42
2023/10/15 05:56:56;;;;;;;8.47;1.80;;;;;;;4.16;100.00;101111.16;7367573;19;20395;-41
2023/10/15 05:59:26;;;;;;;11.20;4.10;;;;;;;4.16;100.00;101112.00;7387692;19;20399;-43
2023/10/15 06:01:58;;;;;;;5.77;1.13;;;;;;;4.14;100.00;101112.69;7366267;19;20470;-39
2023/10/15 06:04:28;;;;;;;2.00;0.87;;;;;;;4.19;100.00;101102.03;7388358;19;20959;-40
2023/10/15 06:06:57;;;;;;;4.10;1.57;;;;;;;4.16;100.00;101106.03;7373321;19;20402;-41
2023/10/15 06:09:27;;;;;;;2.50;0.87;;;;;;;4.14;100.00;101108.47;7394777;19;20388;-39
2023/10/15 06:11:56;;;;;;;3.33;1.27;;;;;;;4.16;100.00;101111.16;7373051;19;20399;-39
2023/10/15 06:14:28;;;;;;;5.70;1.40;;;;;;;4.17;100.00;101112.91;7398894;19;20442;-38
2023/10/15 06:17:00;;;;;;;3.23;1.03;;;;;;;4.18;100.00;101114.69;7375651;19;20478;-42
2023/10/15 06:19:30;;;;;;;2.80;0.97;;;;;;;4.20;100.00;101128.44;7396541;19;20810;-38
2023/10/15 06:22:00;;;;;;;5.57;2.10;;;;;;;4.22;100.00;101134.59;7372487;19;20486;-40
2023/10/15 06:24:29;;;;;;;4.50;1.03;;;;;;;4.28;100.00;101152.00;7393816;19;20506;-40
2023/10/15 06:27:00;;;;;;;9.43;1.43;;;;;;;4.26;100.00;101144.22;7372537;19;20408;-41
2023/10/15 06:29:29;;;;;;;5.23;1.20;;;;;;;4.26;100.00;101134.00;7393927;19;20387;-40
2023/10/15 06:32:02;;;;;;;6.60;1.00;;;;;;;4.22;100.00;101132.03;7371927;19;20816;-39
2023/10/15 06:34:32;;;;;;;4.33;1.53;;;;;;;4.22;100.00;101131.13;7392911;19;20450;-41
2023/10/15 06:37:02;;;;;;;8.77;2.00;;;;;;;4.21;100.00;101144.69;7374315;19;20535;-40
2023/10/15 06:39:33;;;;;;;4.13;1.57;;;;;;;4.21;100.00;101149.78;7397622;19;20398;-39
2023/10/15 06:42:02;;;;;;;5.20;1.47;;;;;;;4.25;100.00;101156.91;7371879;19;20411;-38
2023/10/15 06:44:32;;;;;;;8.20;2.10;;;;;;;4.24;100.00;101160.22;7393024;19;20963;-40
2023/10/15 06:47:05;;;;;;;6.00;0.90;;;;;;;4.23;100.00;101161.00;7370793;19;20978;-46
2023/10/15 06:49:34;;;;;;;6.33;1.10;;;;;;;4.25;100.00;101167.13;7395769;19;20935;-40
2023/10/15 06:52:04;;;;;;;3.10;0.80;;;;;;;4.26;100.00;101163.78;7370762;19;20958;-38
2023/10/15 06:54:34;;;;;;;3.10;0.70;;;;;;;4.25;100.00;101162.03;7397245;19;20441;-41
2023/10/15 06:57:04;;;;;;;6.03;2.27;;;;;;;4.28;100.00;101168.25;7371921;19;20434;-38
2023/10/15 06:59:33;;;;;;;4.90;1.00;;;;;;;4.32;100.00;101175.34;7392196;19;20395;-38
2023/10/15 07:02:06;;;;;;;3.33;0.90;;;;;;;4.28;100.00;101172.44;7370666;19;20490;-37
2023/10/15 07:04:36;;;;;;;2.43;1.10;;;;;;;4.32;100.00;101177.03;7391937;19;20833;-38
2023/10/15 07:07:06;;;;;;;7.43;2.53;;;;;;;4.49;100.00;101192.69;7372646;19;20420;-38
2023/10/15 07:09:37;;;;;;;5.83;0.60;;;;;;;4.38;100.00;101199.56;7394182;19;20463;-40
2023/10/15 07:12:08;;;;;;;2.80;0.90;;;;;;;4.35;100.00;101190.00;7375521;19;20817;-39
2023/10/15 07:14:39;;;;;;;2.53;0.93;;;;;;;4.29;100.00;101199.78;7392147;19;20448;-38
2023/10/15 07:17:11;;;;;;;4.33;1.17;;;;;;;4.28;100.00;101187.78;7371118;19;20399;-39
2023/10/15 07:19:41;;;;;;;2.77;0.83;;;;;;;4.27;100.00;101194.56;7391791;19;20471;-42
2023/10/15 07:22:10;;;;;;;1.83;0.57;;;;;;;4.27;100.00;101201.34;7371839;19;20388;-40
2023/10/15 07:24:40;;;;;;;5.63;1.40;;;;;;;4.24;100.00;101202.00;7391418;19;20431;-38
2023/10/15 07:27:10;;;;;;;4.90;0.80;;;;;;;4.28;100.00;101205.66;7369691;19;20499;-40
2023/10/15 07:29:39;;;;;;;2.43;0.90;;;;;;;4.24;100.00;101191.78;7393162;19;20394;-39
2023/10/15 07:32:12;;;;;;;8.93;3.07;;;;;;;4.25;100.00;101187.56;7370026;19;20399;-40
2023/10/15 07:34:42;;;;;;;7.97;0.80;;;;;;;4.27;100.00;101193.66;7395690;19;20451;-38
2023/10/15 07:37:12;;;;;;;5.53;1.73;;;;;;;4.26;100.00;101210.66;7370021;19;20924;-39
2023/10/15 07:39:41;;;;;;;7.63;1.10;;;;;;;4.18;100.00;101199.88;7391504;19;21057;-40
2023/10/15 07:42:11;;;;;;;3.10;0.97;;;;;;;4.17;100.00;101198.06;7369683;19;20419;-39
2023/10/15 07:44:41;;;;;;;6.17;0.90;;;;;;;4.21;100.00;101200.88;7390730;19;20869;-39
2023/10/15 07:47:15;;;;;;;2.27;0.70;;;;;;;4.22;100.00;101207.75;7369584;19;20771;-40
2023/10/15 07:49:45;;;;;;;7.00;2.57;;;;;;;4.19;100.00;101209.31;7390990;19;20416;-39
2023/10/15 07:52:16;;;;;;;4.93;1.40;;;;;;;4.17;100.00;101199.75;7370656;19;20394;-41
2023/10/15 07:54:46;;;;;;;2.63;0.80;;;;;;;4.24;100.00;101194.31;7390829;19;20439;-39
2023/10/15 07:57:15;;;;;;;5.97;1.13;;;;;;;4.29;100.00;101208.34;7369208;19;20960;-41
2023/10/15 07:59:45;;;;;;;5.40;1.07;;;;;;;4.25;100.00;101225.88;7383008;19;20430;-42
2023/10/15 08:02:17;;;;;;;4.93;1.00;;;;;;;4.31;100.00;101246.78;7365245;19;21007;-38
2023/10/15 08:04:49;;;;;;;4.33;1.47;;;;;;;4.29;100.00;101250.88;7387213;19;20408;-40
2023/10/15 08:07:19;;;;;;;4.87;1.40;;;;;;;4.18;100.00;101240.75;7365204;19;20446;-38
2023/10/15 08:09:49;;;;;;;5.57;0.73;;;;;;;4.18;100.00;101227.06;7386532;19;20757;-40
2023/10/15 08:12:19;;;;;;;3.77;1.33;;;;;;;4.28;100.00;101244.88;7365389;19;20443;-41
2023/10/15 08:14:49;;;;;;;54.00;18.73;;;;;;;4.33;100.00;101246.09;7387153;19;20812;-39
2023/10/15 08:17:23;;;;;;;19.40;5.90;;;;;;;4.35;100.00;101253.88;7365240;19;20523;-39
2023/10/15 08:19:53;;;;;;;5.67;1.80;;;;;;;4.37;100.00;101238.69;7386029;19;20812;-40
2023/10/15 08:22:22;;;;;;;33.20;12.47;;;;;;;4.46;100.00;101240.25;7364777;19;21028;-38
2023/10/15 08:24:52;;;;;;;22.30;8.83;;;;;;;4.46;100.00;101226.56;7388021;19;20406;-41
2023/10/15 08:27:22;;;;;;;19.73;8.03;;;;;;;4.42;100.00;101207.56;7363159;19;20419;-41
2023/10/15 08:29:51;;;;;;;30.97;11.33;;;;;;;4.54;100.00;101186.25;7386076;19;20419;-40
2023/10/15 08:32:26;;;;;;;3.03;1.20;;;;;;;4.45;100.00;101174.59;7364465;19;20862;-38
2023/10/15 08:34:57;;;;;;;9.63;3.87;;;;;;;4.48;100.00;101150.94;7387600;19;20403;-41
2023/10/15 08:37:27;;;;;;;4.93;1.10;;;;;;;4.40;100.00;101131.56;7360374;19;20443;-39
2023/10/15 08:39:56;;;;;;;1.60;0.70;;;;;;;4.56;100.00;101125.94;7382555;19;20616;-39
2023/10/15 08:42:28;;;;;;;10.50;3.50;;;;;;;4.77;100.00;101110.34;7363148;19;20572;-39
2023/10/15 08:44:59;;;;;;;9.30;2.90;;;;;;;4.67;100.00;101108.81;7384988;19;20408;-39
2023/10/15 08:47:33;;;;;;;1.50;0.70;;;;;;;4.65;100.00;101088.25;7360406;19;20795;-41
2023/10/15 08:50:04;;;;;;;6.63;2.00;;;;;;;4.54;100.00;101073.81;7387600;19;20497;-39
2023/10/15 08:52:34;;;;;;;17.07;5.50;;;;;;;4.54;100.00;101048.25;7362420;19;20506;-38
2023/10/15 08:55:06;;;;;;;4.67;1.77;;;;;;;4.58;100.00;101024.69;7386912;19;20399;-39
2023/10/15 08:57:36;;;;;;;11.10;3.40;;;;;;;4.48;100.00;100996.69;7362518;19;20419;-39
2023/10/15 09:00:25;;;;;;;7.17;1.03;;;;;;;4.47;100.00;100988.16;7386821;19;20483;-38
2023/10/15 09:03:03;;;;;;;7.63;3.53;;;;;;;4.45;100.00;100987.16;7362575;19;20515;-40
2023/10/15 09:05:34;;;;;;;2.80;1.20;;;;;;;4.50;100.00;101001.16;7385947;19;20430;-39
2023/10/15 09:08:07;;;;;;;4.90;1.67;;;;;;;4.50;100.00;100996.03;7362303;19;20862;-39
2023/10/15 09:10:40;;;;;;;2.10;1.00;;;;;;;4.53;100.00;101018.38;7384913;19;20474;-40
2023/10/15 09:13:14;;;;;;;4.80;0.97;;;;;;;4.68;100.00;101021.09;7362263;19;21047;-41
2023/10/15 09:15:45;;;;;;;3.00;0.90;;;;;;;4.91;100.00;101035.50;7384076;19;20744;-40
2023/10/15 09:18:18;;;;;;;13.60;5.53;;;;;;;4.99;100.00;101070.13;7362668;19;20510;-40
2023/10/15 09:20:50;;;;;;;8.70;2.70;;;;;;;4.97;100.00;101079.38;7385766;19;20937;-45
2023/10/15 09:23:22;;;;;;;7.60;2.00;;;;;;;4.88;100.00;101099.22;7361496;19;21064;-41
2023/10/15 09:25:56;;;;;;;9.20;3.90;;;;;;;4.95;100.00;101144.91;7384714;19;20414;-40
2023/10/15 09:28:27;;;;;;;2.13;0.83;;;;;;;4.78;100.00;101170.91;7362404;19;20430;-39
2023/10/15 09:31:05;;;;;;;11.30;1.90;;;;;;;4.80;100.00;101206.06;7383760;19;20443;-38
2023/10/15 09:33:37;;;;;;;4.17;1.40;;;;;;;4.66;100.00;101222.94;7361099;19;20794;-39
2023/10/15 09:36:08;;;;;;;5.10;1.10;;;;;;;4.67;100.00;101227.25;7385291;19;20428;-38
2023/10/15 09:38:38;;;;;;;4.17;1.17;;;;;;;4.67;100.00;101245.16;7361525;19;20498;-40
2023/10/15 09:41:10;;;;;;;3.50;1.00;;;;;;;4.66;100.00;101248.50;7391932;19;20418;-37
2023/10/15 09:43:39;;;;;;;3.63;0.97;;;;;;;4.77;100.00;101243.28;7371505;19;21112;-37
2023/10/15 09:46:09;;;;;;;4.40;0.87;;;;;;;4.70;100.00;101235.16;7401474;19;20490;-38
2023/10/15 09:48:42;;;;;;;3.73;0.80;;;;;;;4.81;100.00;101247.84;7373870;19;20415;-39
2023/10/15 09:51:12;;;;;;;2.73;0.90;;;;;;;4.82;100.00;101234.28;7397411;19;20403;-38
2023/10/15 09:53:45;;;;;;;3.23;0.60;;;;;;;4.81;100.00;101237.59;7374363;19;20451;-40
2023/10/15 09:56:17;;;;;;;5.20;1.23;;;;;;;4.86;100.00;101232.06;7398110;19;20470;-39
2023/10/15 09:58:47;;;;;;;2.87;1.00;;;;;;;5.07;100.00;101230.97;7375734;19;20455;-39
2023/10/15 10:01:25;;;;;;;2.90;0.90;;;;;;;5.03;100.00;101234.94;7398327;19;20403;-40
2023/10/15 10:04:40;;;;;;;4.23;0.77;;;;;;;5.13;100.00;101234.81;7375082;19;20451;-39
2023/10/15 10:07:24;;;;;;;6.37;0.73;;;;;;;5.41;100.00;101253.81;7374789;19;20502;-42
2023/10/15 10:10:10;;;;;;;8.00;1.13;;;;;;;5.42;100.00;101278.63;7397571;19;20403;-39
2023/10/15 10:12:59;;;;;;;5.13;1.50;;;;;;;5.52;100.00;101293.84;7375090;19;20460;-39
2023/10/15 10:15:39;;;;;;;5.43;1.60;;;;;;;5.47;100.00;101279.84;7397375;19;20411;-37
2023/10/15 10:18:10;;;;;;;3.67;0.87;;;;;;;5.32;100.00;101287.31;7375021;19;20418;-39
2023/10/15 10:20:42;;;;;;;5.00;1.17;;;;;;;5.27;100.00;101289.56;7397094;19;20434;-38
2023/10/15 10:23:14;;;;;;;6.07;1.53;;;;;;;5.22;100.00;101288.31;7373761;19;20463;-40
2023/10/15 10:25:46;;;;;;;2.33;0.90;;;;;;;5.35;100.00;101294.31;7399831;19;20403;-38
2023/10/15 10:28:17;;;;;;;3.97;0.90;;;;;;;5.49;100.00;101306.41;7374232;19;20419;-39
2023/10/15 10:30:55;;;;;;;3.50;0.93;;;;;;;5.61;100.00;101300.41;7395287;19;20406;-40
2023/10/15 10:33:42;;;;;;;4.50;1.07;;;;;;;5.46;100.00;101295.97;7373234;19;20496;-43
2023/10/15 10:36:19;;;;;;;3.27;1.07;;;;;;;5.47;100.00;101297.75;7395420;19;20424;-38
2023/10/15 10:38:59;;;;;;;4.33;0.90;;;;;;;5.62;100.00;101309.84;7367239;19;20443;-38
2023/10/15 10:41:40;;;;;;;3.90;0.90;;;;;;;5.78;100.00;101327.19;7371012;19;20410;-38
2023/10/15 10:44:10;;;;;;;2.87;0.77;;;;;;;5.93;100.00;101340.19;7398078;19;20443;-39
2023/10/15 10:46:56;;;;;;;7.53;1.37;;;;;;;6.25;100.00;101346.69;7374163;19;20398;-40
2023/10/15 10:49:34;;;;;;;12.10;1.03;;;;;;;6.07;100.00;101357.44;7395849;19;20407;-40
2023/10/15 10:52:14;;;;;;;6.77;1.00;;;;;;;6.04;100.00;101352.09;7373233;19;20403;-39
2023/10/15 10:54:45;;;;;;;4.03;1.40;;;;;;;5.86;100.00;101355.91;7395964;19;20456;-39
2023/10/15 10:57:18;;;;;;;3.60;0.90;;;;;;;5.88;100.00;101375.72;7373154;19;20423;-40
2023/10/15 10:59:48;;;;;;;4.83;1.53;;;;;;;6.00;100.00;101388.50;7397054;19;20409;-38
2023/10/15 11:02:20;;;;;;;2.27;0.93;;;;;;;6.05;100.00;101400.00;7372680;19;20427;-39
2023/10/15 11:04:50;;;;;;;3.63;0.83;;;;;;;6.04;100.00;101400.78;7389496;19;20495;-38
2023/10/15 11:07:22;;;;;;;9.87;1.37;;;;;;;6.04;100.00;101403.34;7366477;19;20415;-38
2023/10/15 11:09:52;;;;;;;3.13;1.00;;;;;;;6.20;100.00;101415.56;7387074;19;21267;-38
2023/10/15 11:12:22;;;;;;;7.73;0.93;;;;;;;6.09;100.00;101421.59;7365351;19;20423;-38
2023/10/15 11:14:51;;;;;;;6.13;1.40;;;;;;;6.20;100.00;101430.94;7388150;19;20419;-38
2023/10/15 11:17:21;;;;;;;3.87;0.97;;;;;;;6.13;100.00;101444.09;7367897;19;20419;-38
2023/10/15 11:19:52;;;;;;;4.50;0.80;;;;;;;6.20;100.00;101443.75;7381374;19;20399;-38
2023/10/15 11:22:26;;;;;;;7.63;1.33;;;;;;;5.97;100.00;101472.84;7366224;19;20777;-37
2023/10/15 11:24:55;;;;;;;6.00;1.10;;;;;;;6.21;100.00;101483.97;7389441;19;20947;-39
2023/10/15 11:27:25;;;;;;;5.13;1.20;;;;;;;6.24;100.00;101508.94;7367528;19;20490;-39
2023/10/15 11:29:55;;;;;;;10.87;3.73;;;;;;;6.33;100.00;101535.22;7387839;19;20403;-40
2023/10/15 11:32:25;;;;;;;5.67;1.30;;;;;;;6.46;100.00;101566.88;7365875;19;20413;-39
2023/10/15 11:34:57;;;;;;;4.53;1.20;;;;;;;6.67;100.00;101582.00;7389014;19;21505;-40
2023/10/15 11:37:29;;;;;;;9.60;3.00;;;;;;;6.69;100.00;101596.72;7367092;19;20423;-38
2023/10/15 11:40:00;;;;;;;6.33;1.60;;;;;;;6.70;100.00;101612.97;7388868;19;20418;-38
2023/10/15 11:42:29;;;;;;;6.70;1.73;;;;;;;6.70;100.00;101623.22;7364833;19;20444;-39
2023/10/15 11:44:59;;;;;;;3.70;1.00;;;;;;;6.81;100.00;101642.84;7386725;19;20763;-38
2023/10/15 11:47:32;;;;;;;5.33;0.80;;;;;;;6.79;100.00;101659.81;7364625;19;20415;-40
2023/10/15 11:50:06;;;;;;;4.37;0.60;;;;;;;6.68;100.00;101677.00;7385578;19;20942;-41